sensor_id;sensor_type;location;lat;lon;timestamp;P1;durP1;ratioP1;P2;durP2;ratioP2
21243;SDS011;10780;50.942;4.028;2022-12-29T00:01:33;2.38;;;2.15;;
21243;SDS011;10780;50.942;4.028;2022-12-29T00:04:00;4.68;;;1.95;;
21243;SDS011;10780;50.942;4.028;2022-12-29T00:06:25;2.65;;;1.73;;
21243;SDS011;10780;50.942;4.028;2022-12-29T00:08:51;2.92;;;1.70;;
21243;SDS011;10780;50.942;4.028;2022-12-29T00:11:18;1.90;;;1.70;;
21243;SDS011;10780;50.942;4.028;2022-12-29T00:13:52;2.63;;;1.50;;
21243;SDS011;10780;50.942;4.028;2022-12-29T00:16:36;2.58;;;1.70;;
21243;SDS011;10780;50.942;4.028;2022-12-29T00:19:04;2.47;;;1.58;;
21243;SDS011;10780;50.942;4.028;2022-12-29T00:21:30;4.05;;;1.50;;
21243;SDS011;10780;50.942;4.028;2022-12-29T00:24:19;3.35;;;1.45;;
21243;SDS011;10780;50.942;4.028;2022-12-29T00:26:57;2.33;;;1.23;;
21243;SDS011;10780;50.942;4.028;2022-12-29T00:29:51;1.55;;;1.10;;
21243;SDS011;10780;50.942;4.028;2022-12-29T00:32:36;4.00;;;1.60;;
21243;SDS011;10780;50.942;4.028;2022-12-29T00:35:34;3.47;;;1.65;;
21243;SDS011;10780;50.942;4.028;2022-12-29T00:38:05;1.67;;;1.08;;
21243;SDS011;10780;50.942;4.028;2022-12-29T00:40:51;2.35;;;1.58;;
21243;SDS011;10780;50.942;4.028;2022-12-29T00:43:35;2.17;;;1.30;;
21243;SDS011;10780;50.942;4.028;2022-12-29T00:46:19;2.50;;;1.10;;
21243;SDS011;10780;50.942;4.028;2022-12-29T00:48:45;4.38;;;1.30;;
21243;SDS011;10780;50.942;4.028;2022-12-29T00:51:29;3.85;;;1.40;;
21243;SDS011;10780;50.942;4.028;2022-12-29T00:53:54;2.17;;;1.27;;
21243;SDS011;10780;50.942;4.028;2022-12-29T00:56:20;4.75;;;1.23;;
21243;SDS011;10780;50.942;4.028;2022-12-29T00:58:46;4.15;;;1.23;;
21243;SDS011;10780;50.942;4.028;2022-12-29T01:01:11;4.95;;;1.20;;
21243;SDS011;10780;50.942;4.028;2022-12-29T01:03:37;3.47;;;1.08;;
21243;SDS011;10780;50.942;4.028;2022-12-29T01:06:04;2.97;;;1.58;;
21243;SDS011;10780;50.942;4.028;2022-12-29T01:08:31;2.60;;;1.10;;
21243;SDS011;10780;50.942;4.028;2022-12-29T01:11:05;4.70;;;1.42;;
21243;SDS011;10780;50.942;4.028;2022-12-29T01:13:32;6.47;;;1.33;;
21243;SDS011;10780;50.942;4.028;2022-12-29T01:15:59;3.42;;;1.35;;
21243;SDS011;10780;50.942;4.028;2022-12-29T01:18:25;5.20;;;1.27;;
21243;SDS011;10780;50.942;4.028;2022-12-29T01:20:51;2.28;;;1.40;;
21243;SDS011;10780;50.942;4.028;2022-12-29T01:23:23;4.35;;;1.85;;
21243;SDS011;10780;50.942;4.028;2022-12-29T01:25:48;3.58;;;1.65;;
21243;SDS011;10780;50.942;4.028;2022-12-29T01:28:14;6.15;;;1.58;;
21243;SDS011;10780;50.942;4.028;2022-12-29T01:30:39;3.25;;;1.13;;
21243;SDS011;10780;50.942;4.028;2022-12-29T01:33:05;5.50;;;1.40;;
21243;SDS011;10780;50.942;4.028;2022-12-29T01:35:31;2.88;;;1.30;;
21243;SDS011;10780;50.942;4.028;2022-12-29T01:37:56;2.33;;;1.20;;
21243;SDS011;10780;50.942;4.028;2022-12-29T01:40:22;3.75;;;1.23;;
21243;SDS011;10780;50.942;4.028;2022-12-29T01:42:48;3.20;;;1.50;;
21243;SDS011;10780;50.942;4.028;2022-12-29T01:45:14;2.70;;;1.27;;
21243;SDS011;10780;50.942;4.028;2022-12-29T01:48:03;2.75;;;1.00;;
21243;SDS011;10780;50.942;4.028;2022-12-29T01:50:30;1.88;;;1.23;;
21243;SDS011;10780;50.942;4.028;2022-12-29T01:53:05;1.60;;;1.10;;
21243;SDS011;10780;50.942;4.028;2022-12-29T01:55:50;2.28;;;1.02;;
21243;SDS011;10780;50.942;4.028;2022-12-29T01:58:19;2.35;;;0.93;;
21243;SDS011;10780;50.942;4.028;2022-12-29T02:00:46;3.40;;;1.15;;
21243;SDS011;10780;50.942;4.028;2022-12-29T02:03:13;3.35;;;1.23;;
21243;SDS011;10780;50.942;4.028;2022-12-29T02:05:54;3.33;;;1.30;;
21243;SDS011;10780;50.942;4.028;2022-12-29T02:08:25;2.47;;;1.08;;
21243;SDS011;10780;50.942;4.028;2022-12-29T02:10:53;3.22;;;0.98;;
21243;SDS011;10780;50.942;4.028;2022-12-29T02:13:20;3.67;;;1.13;;
21243;SDS011;10780;50.942;4.028;2022-12-29T02:32:46;4.85;;;1.10;;
21243;SDS011;10780;50.942;4.028;2022-12-29T02:35:54;5.00;;;1.10;;
21243;SDS011;10780;50.942;4.028;2022-12-29T02:38:25;1.52;;;0.85;;
21243;SDS011;10780;50.942;4.028;2022-12-29T02:41:06;3.17;;;1.08;;
21243;SDS011;10780;50.942;4.028;2022-12-29T02:43:56;3.55;;;1.20;;
21243;SDS011;10780;50.942;4.028;2022-12-29T02:49:13;3.85;;;1.00;;
21243;SDS011;10780;50.942;4.028;2022-12-29T02:52:01;4.95;;;1.00;;
21243;SDS011;10780;50.942;4.028;2022-12-29T02:54:48;2.28;;;1.10;;
21243;SDS011;10780;50.942;4.028;2022-12-29T02:57:26;5.28;;;1.02;;
21243;SDS011;10780;50.942;4.028;2022-12-29T03:00:05;3.95;;;1.05;;
21243;SDS011;10780;50.942;4.028;2022-12-29T03:13:26;4.47;;;1.05;;
21243;SDS011;10780;50.942;4.028;2022-12-29T03:16:35;3.83;;;1.13;;
21243;SDS011;10780;50.942;4.028;2022-12-29T03:24:36;4.55;;;1.25;;
21243;SDS011;10780;50.942;4.028;2022-12-29T03:27:06;6.07;;;1.65;;
21243;SDS011;10780;50.942;4.028;2022-12-29T03:29:40;2.85;;;1.05;;
21243;SDS011;10780;50.942;4.028;2022-12-29T03:32:09;6.75;;;1.05;;
21243;SDS011;10780;50.942;4.028;2022-12-29T03:34:37;3.85;;;1.13;;
21243;SDS011;10780;50.942;4.028;2022-12-29T03:37:11;5.60;;;0.90;;
21243;SDS011;10780;50.942;4.028;2022-12-29T03:39:40;3.80;;;1.40;;
21243;SDS011;10780;50.942;4.028;2022-12-29T03:42:09;4.55;;;1.20;;
21243;SDS011;10780;50.942;4.028;2022-12-29T03:44:40;5.57;;;1.25;;
21243;SDS011;10780;50.942;4.028;2022-12-29T03:47:07;3.95;;;1.10;;
21243;SDS011;10780;50.942;4.028;2022-12-29T03:49:35;2.38;;;0.98;;
21243;SDS011;10780;50.942;4.028;2022-12-29T03:52:01;2.90;;;1.00;;
21243;SDS011;10780;50.942;4.028;2022-12-29T03:54:27;5.80;;;1.40;;
21243;SDS011;10780;50.942;4.028;2022-12-29T03:56:53;5.78;;;1.50;;
21243;SDS011;10780;50.942;4.028;2022-12-29T03:59:18;6.93;;;1.35;;
21243;SDS011;10780;50.942;4.028;2022-12-29T04:01:44;7.15;;;1.30;;
21243;SDS011;10780;50.942;4.028;2022-12-29T04:04:09;7.72;;;2.10;;
21243;SDS011;10780;50.942;4.028;2022-12-29T04:06:35;3.10;;;1.45;;
21243;SDS011;10780;50.942;4.028;2022-12-29T04:09:01;8.05;;;1.30;;
21243;SDS011;10780;50.942;4.028;2022-12-29T04:11:26;5.38;;;1.45;;
21243;SDS011;10780;50.942;4.028;2022-12-29T04:13:52;4.30;;;1.40;;
21243;SDS011;10780;50.942;4.028;2022-12-29T04:16:17;4.57;;;1.17;;
21243;SDS011;10780;50.942;4.028;2022-12-29T04:18:43;4.18;;;1.10;;
21243;SDS011;10780;50.942;4.028;2022-12-29T04:21:09;3.95;;;1.50;;
21243;SDS011;10780;50.942;4.028;2022-12-29T04:23:36;4.18;;;1.13;;
21243;SDS011;10780;50.942;4.028;2022-12-29T04:26:03;5.38;;;1.33;;
21243;SDS011;10780;50.942;4.028;2022-12-29T04:28:31;4.30;;;1.20;;
21243;SDS011;10780;50.942;4.028;2022-12-29T04:30:56;4.22;;;0.80;;
21243;SDS011;10780;50.942;4.028;2022-12-29T04:33:22;3.55;;;1.00;;
21243;SDS011;10780;50.942;4.028;2022-12-29T04:35:48;4.20;;;1.13;;
21243;SDS011;10780;50.942;4.028;2022-12-29T04:38:14;5.05;;;1.23;;
21243;SDS011;10780;50.942;4.028;2022-12-29T04:40:41;5.47;;;1.20;;
21243;SDS011;10780;50.942;4.028;2022-12-29T04:43:07;5.43;;;1.17;;
21243;SDS011;10780;50.942;4.028;2022-12-29T04:45:34;4.15;;;1.05;;
21243;SDS011;10780;50.942;4.028;2022-12-29T04:48:00;1.48;;;0.90;;
21243;SDS011;10780;50.942;4.028;2022-12-29T04:50:25;2.17;;;0.93;;
21243;SDS011;10780;50.942;4.028;2022-12-29T04:52:51;4.78;;;1.00;;
21243;SDS011;10780;50.942;4.028;2022-12-29T04:55:17;3.63;;;1.17;;
21243;SDS011;10780;50.942;4.028;2022-12-29T04:57:42;6.53;;;1.65;;
21243;SDS011;10780;50.942;4.028;2022-12-29T05:00:08;2.85;;;1.00;;
21243;SDS011;10780;50.942;4.028;2022-12-29T05:02:35;3.45;;;1.10;;
21243;SDS011;10780;50.942;4.028;2022-12-29T05:05:01;3.78;;;1.10;;
21243;SDS011;10780;50.942;4.028;2022-12-29T05:07:27;3.42;;;0.88;;
21243;SDS011;10780;50.942;4.028;2022-12-29T05:09:52;2.33;;;1.00;;
21243;SDS011;10780;50.942;4.028;2022-12-29T05:12:18;3.45;;;1.00;;
21243;SDS011;10780;50.942;4.028;2022-12-29T05:14:44;4.75;;;1.15;;
21243;SDS011;10780;50.942;4.028;2022-12-29T05:17:09;3.97;;;0.98;;
21243;SDS011;10780;50.942;4.028;2022-12-29T05:19:35;3.97;;;1.33;;
21243;SDS011;10780;50.942;4.028;2022-12-29T05:22:01;5.18;;;1.10;;
21243;SDS011;10780;50.942;4.028;2022-12-29T05:24:26;6.28;;;2.10;;
21243;SDS011;10780;50.942;4.028;2022-12-29T05:26:52;6.82;;;1.10;;
21243;SDS011;10780;50.942;4.028;2022-12-29T05:29:17;3.25;;;1.15;;
21243;SDS011;10780;50.942;4.028;2022-12-29T05:31:43;4.60;;;1.65;;
21243;SDS011;10780;50.942;4.028;2022-12-29T05:34:10;3.35;;;1.58;;
21243;SDS011;10780;50.942;4.028;2022-12-29T05:36:36;9.43;;;1.65;;
21243;SDS011;10780;50.942;4.028;2022-12-29T05:39:02;3.28;;;1.20;;
21243;SDS011;10780;50.942;4.028;2022-12-29T05:41:28;5.55;;;1.33;;
21243;SDS011;10780;50.942;4.028;2022-12-29T05:43:53;4.15;;;1.15;;
21243;SDS011;10780;50.942;4.028;2022-12-29T05:46:19;6.90;;;1.65;;
21243;SDS011;10780;50.942;4.028;2022-12-29T05:48:45;5.35;;;1.58;;
21243;SDS011;10780;50.942;4.028;2022-12-29T05:51:10;5.75;;;1.60;;
21243;SDS011;10780;50.942;4.028;2022-12-29T05:53:36;3.95;;;1.33;;
21243;SDS011;10780;50.942;4.028;2022-12-29T05:56:02;6.38;;;1.35;;
21243;SDS011;10780;50.942;4.028;2022-12-29T05:58:27;5.40;;;1.73;;
21243;SDS011;10780;50.942;4.028;2022-12-29T06:00:53;6.53;;;1.60;;
21243;SDS011;10780;50.942;4.028;2022-12-29T06:03:19;5.32;;;1.35;;
21243;SDS011;10780;50.942;4.028;2022-12-29T06:05:45;4.95;;;1.20;;
21243;SDS011;10780;50.942;4.028;2022-12-29T06:08:11;5.60;;;1.45;;
21243;SDS011;10780;50.942;4.028;2022-12-29T06:10:37;6.75;;;1.70;;
21243;SDS011;10780;50.942;4.028;2022-12-29T06:13:02;5.03;;;1.67;;
21243;SDS011;10780;50.942;4.028;2022-12-29T06:15:30;8.20;;;1.40;;
21243;SDS011;10780;50.942;4.028;2022-12-29T06:17:56;12.15;;;1.70;;
21243;SDS011;10780;50.942;4.028;2022-12-29T06:20:22;6.18;;;1.52;;
21243;SDS011;10780;50.942;4.028;2022-12-29T06:22:47;7.57;;;1.42;;
21243;SDS011;10780;50.942;4.028;2022-12-29T06:25:14;8.10;;;1.92;;
21243;SDS011;10780;50.942;4.028;2022-12-29T06:27:40;11.68;;;2.28;;
21243;SDS011;10780;50.942;4.028;2022-12-29T06:30:06;6.22;;;1.65;;
21243;SDS011;10780;50.942;4.028;2022-12-29T06:32:33;5.53;;;1.50;;
21243;SDS011;10780;50.942;4.028;2022-12-29T06:34:59;6.78;;;1.75;;
21243;SDS011;10780;50.942;4.028;2022-12-29T06:37:25;6.13;;;1.58;;
21243;SDS011;10780;50.942;4.028;2022-12-29T06:39:51;5.65;;;1.52;;
21243;SDS011;10780;50.942;4.028;2022-12-29T06:42:17;6.90;;;1.85;;
21243;SDS011;10780;50.942;4.028;2022-12-29T06:44:42;11.38;;;2.10;;
21243;SDS011;10780;50.942;4.028;2022-12-29T06:47:08;8.70;;;1.60;;
21243;SDS011;10780;50.942;4.028;2022-12-29T06:49:34;8.52;;;1.80;;
21243;SDS011;10780;50.942;4.028;2022-12-29T06:51:59;7.45;;;1.58;;
21243;SDS011;10780;50.942;4.028;2022-12-29T06:54:25;7.25;;;1.67;;
21243;SDS011;10780;50.942;4.028;2022-12-29T06:56:51;7.82;;;1.48;;
21243;SDS011;10780;50.942;4.028;2022-12-29T06:59:17;7.25;;;1.38;;
21243;SDS011;10780;50.942;4.028;2022-12-29T07:01:43;12.07;;;1.80;;
21243;SDS011;10780;50.942;4.028;2022-12-29T07:04:08;7.43;;;1.80;;
21243;SDS011;10780;50.942;4.028;2022-12-29T07:06:34;4.30;;;1.63;;
21243;SDS011;10780;50.942;4.028;2022-12-29T07:08:59;10.23;;;1.98;;
21243;SDS011;10780;50.942;4.028;2022-12-29T07:11:25;8.65;;;1.75;;
21243;SDS011;10780;50.942;4.028;2022-12-29T07:13:51;10.75;;;1.55;;
21243;SDS011;10780;50.942;4.028;2022-12-29T07:16:16;6.85;;;1.65;;
21243;SDS011;10780;50.942;4.028;2022-12-29T07:18:42;9.13;;;2.15;;
21243;SDS011;10780;50.942;4.028;2022-12-29T07:21:08;8.77;;;1.77;;
21243;SDS011;10780;50.942;4.028;2022-12-29T07:23:34;8.45;;;1.85;;
21243;SDS011;10780;50.942;4.028;2022-12-29T07:26:00;13.18;;;2.33;;
21243;SDS011;10780;50.942;4.028;2022-12-29T07:28:27;9.85;;;1.60;;
21243;SDS011;10780;50.942;4.028;2022-12-29T07:30:53;12.18;;;2.03;;
21243;SDS011;10780;50.942;4.028;2022-12-29T07:33:18;8.40;;;1.63;;
21243;SDS011;10780;50.942;4.028;2022-12-29T07:35:44;12.02;;;1.95;;
21243;SDS011;10780;50.942;4.028;2022-12-29T07:38:10;10.93;;;2.17;;
21243;SDS011;10780;50.942;4.028;2022-12-29T07:40:36;8.23;;;1.60;;
21243;SDS011;10780;50.942;4.028;2022-12-29T07:43:01;6.30;;;1.70;;
21243;SDS011;10780;50.942;4.028;2022-12-29T07:45:27;6.63;;;1.98;;
21243;SDS011;10780;50.942;4.028;2022-12-29T07:47:52;15.43;;;2.33;;
21243;SDS011;10780;50.942;4.028;2022-12-29T07:50:18;9.25;;;1.77;;
21243;SDS011;10780;50.942;4.028;2022-12-29T07:52:44;9.55;;;2.15;;
21243;SDS011;10780;50.942;4.028;2022-12-29T07:55:11;8.85;;;2.03;;
21243;SDS011;10780;50.942;4.028;2022-12-29T07:57:37;6.70;;;1.80;;
21243;SDS011;10780;50.942;4.028;2022-12-29T08:00:03;7.20;;;2.10;;
21243;SDS011;10780;50.942;4.028;2022-12-29T08:02:29;9.85;;;2.42;;
21243;SDS011;10780;50.942;4.028;2022-12-29T08:04:54;8.77;;;1.70;;
21243;SDS011;10780;50.942;4.028;2022-12-29T08:07:20;6.03;;;1.70;;
21243;SDS011;10780;50.942;4.028;2022-12-29T08:09:46;9.15;;;2.00;;
21243;SDS011;10780;50.942;4.028;2022-12-29T08:12:11;4.95;;;1.88;;
21243;SDS011;10780;50.942;4.028;2022-12-29T08:14:37;8.35;;;2.08;;
21243;SDS011;10780;50.942;4.028;2022-12-29T08:17:03;9.48;;;2.47;;
21243;SDS011;10780;50.942;4.028;2022-12-29T08:19:28;5.18;;;1.77;;
21243;SDS011;10780;50.942;4.028;2022-12-29T08:21:55;12.60;;;2.10;;
21243;SDS011;10780;50.942;4.028;2022-12-29T08:24:21;6.97;;;2.20;;
21243;SDS011;10780;50.942;4.028;2022-12-29T08:26:47;6.95;;;1.60;;
21243;SDS011;10780;50.942;4.028;2022-12-29T08:29:12;4.45;;;1.77;;
21243;SDS011;10780;50.942;4.028;2022-12-29T08:31:38;9.20;;;2.30;;
21243;SDS011;10780;50.942;4.028;2022-12-29T08:34:03;8.82;;;3.22;;
21243;SDS011;10780;50.942;4.028;2022-12-29T08:36:29;8.68;;;1.70;;
21243;SDS011;10780;50.942;4.028;2022-12-29T08:38:55;8.18;;;2.15;;
21243;SDS011;10780;50.942;4.028;2022-12-29T08:41:21;11.73;;;1.70;;
21243;SDS011;10780;50.942;4.028;2022-12-29T08:43:47;15.30;;;2.72;;
21243;SDS011;10780;50.942;4.028;2022-12-29T08:46:14;10.80;;;2.40;;
21243;SDS011;10780;50.942;4.028;2022-12-29T08:48:40;14.05;;;2.83;;
21243;SDS011;10780;50.942;4.028;2022-12-29T08:51:06;8.02;;;2.45;;
21243;SDS011;10780;50.942;4.028;2022-12-29T08:53:32;10.30;;;2.20;;
21243;SDS011;10780;50.942;4.028;2022-12-29T08:55:59;12.73;;;2.50;;
21243;SDS011;10780;50.942;4.028;2022-12-29T08:58:26;9.52;;;1.98;;
21243;SDS011;10780;50.942;4.028;2022-12-29T09:00:55;14.77;;;2.10;;
21243;SDS011;10780;50.942;4.028;2022-12-29T09:03:22;7.15;;;2.30;;
21243;SDS011;10780;50.942;4.028;2022-12-29T09:05:51;12.45;;;2.45;;
21243;SDS011;10780;50.942;4.028;2022-12-29T09:08:18;8.57;;;2.10;;
21243;SDS011;10780;50.942;4.028;2022-12-29T09:10:44;14.35;;;2.60;;
21243;SDS011;10780;50.942;4.028;2022-12-29T09:13:11;12.82;;;2.78;;
21243;SDS011;10780;50.942;4.028;2022-12-29T09:15:37;11.30;;;2.83;;
21243;SDS011;10780;50.942;4.028;2022-12-29T09:18:03;9.65;;;2.15;;
21243;SDS011;10780;50.942;4.028;2022-12-29T09:20:30;9.45;;;2.70;;
21243;SDS011;10780;50.942;4.028;2022-12-29T09:22:55;9.48;;;2.30;;
21243;SDS011;10780;50.942;4.028;2022-12-29T09:25:21;10.45;;;1.90;;
21243;SDS011;10780;50.942;4.028;2022-12-29T09:27:49;9.68;;;2.42;;
21243;SDS011;10780;50.942;4.028;2022-12-29T09:30:18;9.32;;;2.35;;
21243;SDS011;10780;50.942;4.028;2022-12-29T09:32:45;10.32;;;2.15;;
21243;SDS011;10780;50.942;4.028;2022-12-29T09:35:12;10.68;;;2.70;;
21243;SDS011;10780;50.942;4.028;2022-12-29T09:37:39;13.93;;;2.85;;
21243;SDS011;10780;50.942;4.028;2022-12-29T09:40:05;10.02;;;1.80;;
21243;SDS011;10780;50.942;4.028;2022-12-29T09:42:37;10.23;;;2.25;;
21243;SDS011;10780;50.942;4.028;2022-12-29T09:45:47;10.55;;;2.33;;
21243;SDS011;10780;50.942;4.028;2022-12-29T09:48:20;12.38;;;2.50;;
21243;SDS011;10780;50.942;4.028;2022-12-29T09:50:52;12.77;;;2.55;;
21243;SDS011;10780;50.942;4.028;2022-12-29T09:53:27;10.02;;;2.53;;
21243;SDS011;10780;50.942;4.028;2022-12-29T09:55:55;9.13;;;2.80;;
21243;SDS011;10780;50.942;4.028;2022-12-29T09:58:24;11.85;;;2.92;;
21243;SDS011;10780;50.942;4.028;2022-12-29T10:01:17;8.88;;;2.13;;
21243;SDS011;10780;50.942;4.028;2022-12-29T10:03:52;8.13;;;2.25;;
21243;SDS011;10780;50.942;4.028;2022-12-29T10:06:27;14.30;;;2.45;;
21243;SDS011;10780;50.942;4.028;2022-12-29T10:09:08;13.18;;;2.50;;
21243;SDS011;10780;50.942;4.028;2022-12-29T10:17:44;11.88;;;2.55;;
21243;SDS011;10780;50.942;4.028;2022-12-29T10:25:45;9.02;;;2.53;;
21243;SDS011;10780;50.942;4.028;2022-12-29T10:28:22;13.95;;;2.55;;
21243;SDS011;10780;50.942;4.028;2022-12-29T10:30:50;11.02;;;2.22;;
21243;SDS011;10780;50.942;4.028;2022-12-29T10:33:19;7.53;;;2.47;;
21243;SDS011;10780;50.942;4.028;2022-12-29T10:35:48;8.15;;;1.95;;
21243;SDS011;10780;50.942;4.028;2022-12-29T10:43:45;12.82;;;2.95;;
21243;SDS011;10780;50.942;4.028;2022-12-29T10:46:14;10.45;;;2.40;;
21243;SDS011;10780;50.942;4.028;2022-12-29T10:48:43;9.13;;;2.30;;
21243;SDS011;10780;50.942;4.028;2022-12-29T10:51:20;8.10;;;2.85;;
21243;SDS011;10780;50.942;4.028;2022-12-29T10:54:10;14.27;;;2.28;;
21243;SDS011;10780;50.942;4.028;2022-12-29T10:56:43;12.10;;;2.10;;
21243;SDS011;10780;50.942;4.028;2022-12-29T10:59:33;6.75;;;2.45;;
21243;SDS011;10780;50.942;4.028;2022-12-29T11:07:23;12.15;;;2.40;;
21243;SDS011;10780;50.942;4.028;2022-12-29T11:09:50;8.75;;;2.15;;
21243;SDS011;10780;50.942;4.028;2022-12-29T11:14:45;11.00;;;2.30;;
21243;SDS011;10780;50.942;4.028;2022-12-29T11:17:14;7.25;;;1.85;;
21243;SDS011;10780;50.942;4.028;2022-12-29T11:19:41;10.05;;;2.40;;
21243;SDS011;10780;50.942;4.028;2022-12-29T11:22:28;14.27;;;2.72;;
21243;SDS011;10780;50.942;4.028;2022-12-29T11:24:54;9.18;;;2.00;;
21243;SDS011;10780;50.942;4.028;2022-12-29T11:27:29;9.45;;;1.85;;
21243;SDS011;10780;50.942;4.028;2022-12-29T11:29:55;11.13;;;2.22;;
21243;SDS011;10780;50.942;4.028;2022-12-29T11:32:27;7.10;;;2.25;;
21243;SDS011;10780;50.942;4.028;2022-12-29T11:34:57;8.88;;;2.33;;
21243;SDS011;10780;50.942;4.028;2022-12-29T11:37:30;10.43;;;2.92;;
21243;SDS011;10780;50.942;4.028;2022-12-29T11:40:02;7.30;;;2.63;;
21243;SDS011;10780;50.942;4.028;2022-12-29T11:45:19;9.95;;;2.40;;
21243;SDS011;10780;50.942;4.028;2022-12-29T11:50:41;12.32;;;2.33;;
21243;SDS011;10780;50.942;4.028;2022-12-29T11:53:17;11.23;;;2.08;;
21243;SDS011;10780;50.942;4.028;2022-12-29T11:55:50;14.18;;;3.22;;
21243;SDS011;10780;50.942;4.028;2022-12-29T11:58:20;11.52;;;2.95;;
21243;SDS011;10780;50.942;4.028;2022-12-29T12:00:46;9.27;;;2.25;;
21243;SDS011;10780;50.942;4.028;2022-12-29T12:03:22;11.95;;;3.15;;
21243;SDS011;10780;50.942;4.028;2022-12-29T12:05:50;11.25;;;2.45;;
21243;SDS011;10780;50.942;4.028;2022-12-29T12:14:04;12.50;;;2.30;;
21243;SDS011;10780;50.942;4.028;2022-12-29T12:16:39;8.38;;;2.25;;
21243;SDS011;10780;50.942;4.028;2022-12-29T12:19:20;7.80;;;1.88;;
21243;SDS011;10780;50.942;4.028;2022-12-29T12:22:10;6.40;;;2.05;;
21243;SDS011;10780;50.942;4.028;2022-12-29T12:24:48;10.48;;;2.72;;
21243;SDS011;10780;50.942;4.028;2022-12-29T12:27:24;9.27;;;2.13;;
21243;SDS011;10780;50.942;4.028;2022-12-29T12:38:12;7.28;;;2.30;;
21243;SDS011;10780;50.942;4.028;2022-12-29T12:44:00;11.15;;;2.92;;
21243;SDS011;10780;50.942;4.028;2022-12-29T12:55:02;8.70;;;2.30;;
21243;SDS011;10780;50.942;4.028;2022-12-29T12:58:09;8.63;;;2.20;;
21243;SDS011;10780;50.942;4.028;2022-12-29T13:00:40;8.35;;;2.60;;
21243;SDS011;10780;50.942;4.028;2022-12-29T13:03:36;8.60;;;2.33;;
21243;SDS011;10780;50.942;4.028;2022-12-29T13:09:02;9.43;;;2.60;;
21243;SDS011;10780;50.942;4.028;2022-12-29T13:11:43;7.38;;;2.40;;
21243;SDS011;10780;50.942;4.028;2022-12-29T13:22:48;4.28;;;1.77;;
21243;SDS011;10780;50.942;4.028;2022-12-29T13:28:49;5.18;;;1.58;;
21243;SDS011;10780;50.942;4.028;2022-12-29T13:36:44;5.05;;;1.58;;
21243;SDS011;10780;50.942;4.028;2022-12-29T13:39:17;8.95;;;3.50;;
21243;SDS011;10780;50.942;4.028;2022-12-29T13:41:54;13.13;;;2.65;;
21243;SDS011;10780;50.942;4.028;2022-12-29T13:44:25;7.40;;;2.38;;
21243;SDS011;10780;50.942;4.028;2022-12-29T13:50:23;8.32;;;2.35;;
21243;SDS011;10780;50.942;4.028;2022-12-29T13:55:47;4.10;;;1.30;;
21243;SDS011;10780;50.942;4.028;2022-12-29T14:01:28;3.00;;;1.73;;
21243;SDS011;10780;50.942;4.028;2022-12-29T14:04:12;4.72;;;1.48;;
21243;SDS011;10780;50.942;4.028;2022-12-29T14:06:39;4.72;;;1.33;;
21243;SDS011;10780;50.942;4.028;2022-12-29T14:12:32;2.80;;;1.08;;
21243;SDS011;10780;50.942;4.028;2022-12-29T14:17:35;3.47;;;1.33;;
21243;SDS011;10780;50.942;4.028;2022-12-29T14:20:02;4.03;;;1.45;;
21243;SDS011;10780;50.942;4.028;2022-12-29T14:22:32;2.78;;;1.52;;
21243;SDS011;10780;50.942;4.028;2022-12-29T14:24:58;4.53;;;1.75;;
21243;SDS011;10780;50.942;4.028;2022-12-29T14:27:42;5.63;;;2.20;;
21243;SDS011;10780;50.942;4.028;2022-12-29T14:30:29;5.38;;;1.77;;
21243;SDS011;10780;50.942;4.028;2022-12-29T14:33:12;4.25;;;2.13;;
21243;SDS011;10780;50.942;4.028;2022-12-29T14:35:43;6.85;;;2.60;;
21243;SDS011;10780;50.942;4.028;2022-12-29T14:38:32;4.80;;;2.42;;
21243;SDS011;10780;50.942;4.028;2022-12-29T14:43:51;5.50;;;2.83;;
21243;SDS011;10780;50.942;4.028;2022-12-29T14:46:41;7.13;;;2.60;;
21243;SDS011;10780;50.942;4.028;2022-12-29T14:49:31;7.68;;;2.75;;
21243;SDS011;10780;50.942;4.028;2022-12-29T14:54:54;7.05;;;2.00;;
21243;SDS011;10780;50.942;4.028;2022-12-29T14:57:39;4.93;;;2.35;;
21243;SDS011;10780;50.942;4.028;2022-12-29T15:00:15;9.25;;;2.88;;
21243;SDS011;10780;50.942;4.028;2022-12-29T15:02:53;4.88;;;1.88;;
21243;SDS011;10780;50.942;4.028;2022-12-29T15:05:30;7.47;;;1.98;;
21243;SDS011;10780;50.942;4.028;2022-12-29T15:07:57;7.72;;;2.65;;
21243;SDS011;10780;50.942;4.028;2022-12-29T15:10:24;6.32;;;2.30;;
21243;SDS011;10780;50.942;4.028;2022-12-29T15:12:53;9.82;;;2.42;;
21243;SDS011;10780;50.942;4.028;2022-12-29T15:15:26;7.68;;;2.28;;
21243;SDS011;10780;50.942;4.028;2022-12-29T15:17:56;8.43;;;2.33;;
21243;SDS011;10780;50.942;4.028;2022-12-29T15:20:23;4.05;;;2.15;;
21243;SDS011;10780;50.942;4.028;2022-12-29T15:22:50;7.82;;;2.38;;
21243;SDS011;10780;50.942;4.028;2022-12-29T15:25:22;6.97;;;2.42;;
21243;SDS011;10780;50.942;4.028;2022-12-29T15:27:57;9.15;;;2.40;;
21243;SDS011;10780;50.942;4.028;2022-12-29T15:30:28;8.18;;;2.38;;
21243;SDS011;10780;50.942;4.028;2022-12-29T15:32:54;12.32;;;2.60;;
21243;SDS011;10780;50.942;4.028;2022-12-29T15:35:24;9.15;;;2.33;;
21243;SDS011;10780;50.942;4.028;2022-12-29T15:37:59;7.57;;;2.05;;
21243;SDS011;10780;50.942;4.028;2022-12-29T15:40:27;8.05;;;2.15;;
21243;SDS011;10780;50.942;4.028;2022-12-29T15:43:21;13.00;;;2.30;;
21243;SDS011;10780;50.942;4.028;2022-12-29T15:45:45;4.93;;;1.60;;
21243;SDS011;10780;50.942;4.028;2022-12-29T15:48:17;7.05;;;2.00;;
21243;SDS011;10780;50.942;4.028;2022-12-29T15:50:46;5.85;;;2.50;;
21243;SDS011;10780;50.942;4.028;2022-12-29T15:53:15;9.00;;;2.58;;
21243;SDS011;10780;50.942;4.028;2022-12-29T15:55:50;8.68;;;2.70;;
21243;SDS011;10780;50.942;4.028;2022-12-29T15:58:18;7.53;;;2.10;;
21243;SDS011;10780;50.942;4.028;2022-12-29T16:00:50;5.82;;;1.90;;
21243;SDS011;10780;50.942;4.028;2022-12-29T16:03:21;8.48;;;2.03;;
21243;SDS011;10780;50.942;4.028;2022-12-29T16:05:53;9.10;;;2.25;;
21243;SDS011;10780;50.942;4.028;2022-12-29T16:08:28;4.72;;;1.98;;
21243;SDS011;10780;50.942;4.028;2022-12-29T16:11:03;11.07;;;2.35;;
21243;SDS011;10780;50.942;4.028;2022-12-29T16:13:48;12.13;;;2.40;;
21243;SDS011;10780;50.942;4.028;2022-12-29T16:16:18;11.57;;;2.45;;
21243;SDS011;10780;50.942;4.028;2022-12-29T16:18:47;13.38;;;2.78;;
21243;SDS011;10780;50.942;4.028;2022-12-29T16:21:32;10.73;;;2.40;;
21243;SDS011;10780;50.942;4.028;2022-12-29T16:24:00;10.85;;;3.40;;
21243;SDS011;10780;50.942;4.028;2022-12-29T16:26:30;11.90;;;2.95;;
21243;SDS011;10780;50.942;4.028;2022-12-29T16:28:57;10.38;;;3.08;;
21243;SDS011;10780;50.942;4.028;2022-12-29T16:31:35;8.32;;;2.65;;
21243;SDS011;10780;50.942;4.028;2022-12-29T16:41:59;12.23;;;3.70;;
21243;SDS011;10780;50.942;4.028;2022-12-29T16:44:29;10.77;;;3.65;;
21243;SDS011;10780;50.942;4.028;2022-12-29T16:49:27;11.50;;;3.60;;
21243;SDS011;10780;50.942;4.028;2022-12-29T16:51:54;13.93;;;4.30;;
21243;SDS011;10780;50.942;4.028;2022-12-29T16:54:33;10.32;;;2.78;;
21243;SDS011;10780;50.942;4.028;2022-12-29T16:57:01;12.00;;;3.35;;
21243;SDS011;10780;50.942;4.028;2022-12-29T17:02:16;17.27;;;3.45;;
21243;SDS011;10780;50.942;4.028;2022-12-29T17:04:46;18.13;;;3.78;;
21243;SDS011;10780;50.942;4.028;2022-12-29T17:07:18;15.93;;;3.25;;
21243;SDS011;10780;50.942;4.028;2022-12-29T17:09:45;15.02;;;3.40;;
21243;SDS011;10780;50.942;4.028;2022-12-29T17:12:14;15.30;;;3.13;;
21243;SDS011;10780;50.942;4.028;2022-12-29T17:14:49;10.27;;;3.92;;
21243;SDS011;10780;50.942;4.028;2022-12-29T17:19:55;12.43;;;3.70;;
21243;SDS011;10780;50.942;4.028;2022-12-29T17:22:25;15.45;;;3.65;;
21243;SDS011;10780;50.942;4.028;2022-12-29T17:24:52;14.23;;;3.53;;
21243;SDS011;10780;50.942;4.028;2022-12-29T17:29:54;8.90;;;3.05;;
21243;SDS011;10780;50.942;4.028;2022-12-29T17:32:23;12.48;;;3.35;;
21243;SDS011;10780;50.942;4.028;2022-12-29T17:34:49;7.55;;;3.17;;
21243;SDS011;10780;50.942;4.028;2022-12-29T17:39:46;13.73;;;3.35;;